Weather at Kaan Heliport

Public forecast

Using degrees Celsius for public forecast. Weather courtesy of forecast.io.

Closest aviation weather report (METAR) to Kaan Heliport

Closest report is Adnan Menderes International Airport, 16.8 nm (31.2 km) SW.

2024/02/29 23:50 (retrieved 34 minutes ago)

LTBJ 292350Z VRB02KT CAVOK 11/08 Q1016 NOSIG RMK RWY16 20005KT

Closest aviation forecast (TAF) to Kaan Heliport

Closest forecast is RAF Akrotiri, 354.7 nm (656.9 km) SE.

2024/02/29 21:34 (retrieved 3 hours ago)

TAF LCRA 291931Z 2921/0115 03008KT CAVOK BECMG 0106/0109 09015KT